sensor_id;sensor_type;location;lat;lon;timestamp;pressure;altitude;pressure_sealevel;temperature;humidity
53940;BME280;39850;43.324;21.916;2023-03-01T00:49:48;998.0;;;7.3;76.0
53940;BME280;39850;43.324;21.916;2023-03-01T00:54:25;998.0;;;7.3;76.0
53940;BME280;39850;43.324;21.916;2023-03-01T00:59:03;998.0;;;7.3;76.0
53940;BME280;39850;43.324;21.916;2023-03-01T01:03:39;998.0;;;7.3;76.0
53940;BME280;39850;43.324;21.916;2023-03-01T01:08:16;998.0;;;7.3;76.0
53940;BME280;39850;43.324;21.916;2023-03-01T01:12:53;998.0;;;7.3;76.0
53940;BME280;39850;43.324;21.916;2023-03-01T02:00:10;998.0;;;7.3;77.0
53940;BME280;39850;43.324;21.916;2023-03-01T02:05:11;998.0;;;7.3;77.0
53940;BME280;39850;43.324;21.916;2023-03-01T02:09:53;998.0;;;7.3;77.0
53940;BME280;39850;43.324;21.916;2023-03-01T02:14:30;998.0;;;7.3;77.0
53940;BME280;39850;43.324;21.916;2023-03-01T02:19:51;998.0;;;7.3;77.0
53940;BME280;39850;43.324;21.916;2023-03-01T02:25:22;998.0;;;7.3;77.0
53940;BME280;39850;43.324;21.916;2023-03-01T02:29:59;998.0;;;7.3;77.0
53940;BME280;39850;43.324;21.916;2023-03-01T02:34:36;998.0;;;7.3;77.0
53940;BME280;39850;43.324;21.916;2023-03-01T03:17:20;997.0;;;6.7;78.0
53940;BME280;39850;43.324;21.916;2023-03-01T03:21:56;997.0;;;6.7;78.0
53940;BME280;39850;43.324;21.916;2023-03-01T03:26:34;997.0;;;6.7;78.0
53940;BME280;39850;43.324;21.916;2023-03-01T03:31:11;997.0;;;7.0;77.0
53940;BME280;39850;43.324;21.916;2023-03-01T03:35:51;997.0;;;7.0;77.0
53940;BME280;39850;43.324;21.916;2023-03-01T03:40:41;997.0;;;7.0;77.0
53940;BME280;39850;43.324;21.916;2023-03-01T03:45:19;997.0;;;7.0;77.0
53940;BME280;39850;43.324;21.916;2023-03-01T03:49:56;997.0;;;7.3;76.0
53940;BME280;39850;43.324;21.916;2023-03-01T03:54:33;997.0;;;7.3;76.0
53940;BME280;39850;43.324;21.916;2023-03-01T04:50:02;997.0;;;7.0;78.0
53940;BME280;39850;43.324;21.916;2023-03-01T04:54:38;997.0;;;7.0;78.0
53940;BME280;39850;43.324;21.916;2023-03-01T04:59:15;997.0;;;7.0;78.0
53940;BME280;39850;43.324;21.916;2023-03-01T05:03:52;997.0;;;7.0;78.0
53940;BME280;39850;43.324;21.916;2023-03-01T05:08:29;997.0;;;7.0;78.0
53940;BME280;39850;43.324;21.916;2023-03-01T05:13:05;997.0;;;7.0;78.0
53940;BME280;39850;43.324;21.916;2023-03-01T05:59:19;997.0;;;7.1;76.0
53940;BME280;39850;43.324;21.916;2023-03-01T06:03:56;997.0;;;7.1;76.0
53940;BME280;39850;43.324;21.916;2023-03-01T06:08:33;998.0;;;7.1;76.0
53940;BME280;39850;43.324;21.916;2023-03-01T06:13:10;998.0;;;7.1;76.0
53940;BME280;39850;43.324;21.916;2023-03-01T06:17:48;998.0;;;7.1;76.0
53940;BME280;39850;43.324;21.916;2023-03-01T06:22:27;998.0;;;7.1;76.0
53940;BME280;39850;43.324;21.916;2023-03-01T06:27:04;998.0;;;7.1;76.0
53940;BME280;39850;43.324;21.916;2023-03-01T06:31:41;998.0;;;7.1;76.0
53940;BME280;39850;43.324;21.916;2023-03-01T06:36:17;998.0;;;7.1;76.0
53940;BME280;39850;43.324;21.916;2023-03-01T08:50:33;997.0;;;7.6;75.0
53940;BME280;39850;43.324;21.916;2023-03-01T08:55:10;997.0;;;7.6;75.0
53940;BME280;39850;43.324;21.916;2023-03-01T08:59:47;997.0;;;7.6;75.0
53940;BME280;39850;43.324;21.916;2023-03-01T09:04:24;997.0;;;7.6;75.0
53940;BME280;39850;43.324;21.916;2023-03-01T09:09:15;997.0;;;7.6;75.0
53940;BME280;39850;43.324;21.916;2023-03-01T09:13:53;997.0;;;7.6;75.0
53940;BME280;39850;43.324;21.916;2023-03-01T11:22:37;996.0;;;7.1;76.0
53940;BME280;39850;43.324;21.916;2023-03-01T11:27:38;996.0;;;7.1;76.0
53940;BME280;39850;43.324;21.916;2023-03-01T11:32:41;996.0;;;7.1;76.0
53940;BME280;39850;43.324;21.916;2023-03-01T11:38:12;996.0;;;7.1;76.0
53940;BME280;39850;43.324;21.916;2023-03-01T11:43:37;996.0;;;7.1;76.0
53940;BME280;39850;43.324;21.916;2023-03-01T12:40:02;995.0;;;7.1;76.0
53940;BME280;39850;43.324;21.916;2023-03-01T12:45:53;995.0;;;7.1;76.0
53940;BME280;39850;43.324;21.916;2023-03-01T12:50:52;995.0;;;7.4;76.0
53940;BME280;39850;43.324;21.916;2023-03-01T12:55:42;995.0;;;7.4;76.0
53940;BME280;39850;43.324;21.916;2023-03-01T13:00:45;995.0;;;7.4;76.0
53940;BME280;39850;43.324;21.916;2023-03-01T13:06:08;995.0;;;7.4;76.0
53940;BME280;39850;43.324;21.916;2023-03-01T13:11:19;995.0;;;7.6;75.0
53940;BME280;39850;43.324;21.916;2023-03-01T13:16:42;995.0;;;7.6;75.0
53940;BME280;39850;43.324;21.916;2023-03-01T15:29:39;994.0;;;7.1;76.0
53940;BME280;39850;43.324;21.916;2023-03-01T15:34:34;994.0;;;7.1;76.0
53940;BME280;39850;43.324;21.916;2023-03-01T15:39:42;994.0;;;7.1;76.0
53940;BME280;39850;43.324;21.916;2023-03-01T15:44:36;994.0;;;7.1;76.0
53940;BME280;39850;43.324;21.916;2023-03-01T15:49:43;994.0;;;7.1;76.0
53940;BME280;39850;43.324;21.916;2023-03-01T15:54:28;994.0;;;7.1;76.0
53940;BME280;39850;43.324;21.916;2023-03-01T15:59:05;994.0;;;7.1;76.0
53940;BME280;39850;43.324;21.916;2023-03-01T16:40:53;994.0;;;7.1;77.0
53940;BME280;39850;43.324;21.916;2023-03-01T16:45:36;994.0;;;7.1;77.0
53940;BME280;39850;43.324;21.916;2023-03-01T16:50:13;994.0;;;7.1;77.0
53940;BME280;39850;43.324;21.916;2023-03-01T16:54:50;994.0;;;7.1;77.0
53940;BME280;39850;43.324;21.916;2023-03-01T16:59:27;994.0;;;7.1;77.0
53940;BME280;39850;43.324;21.916;2023-03-01T17:04:05;994.0;;;7.1;77.0
53940;BME280;39850;43.324;21.916;2023-03-01T17:08:43;994.0;;;7.1;77.0
53940;BME280;39850;43.324;21.916;2023-03-01T18:04:14;995.0;;;7.1;77.0
53940;BME280;39850;43.324;21.916;2023-03-01T18:08:53;995.0;;;7.1;77.0
53940;BME280;39850;43.324;21.916;2023-03-01T18:13:29;995.0;;;7.1;77.0
53940;BME280;39850;43.324;21.916;2023-03-01T18:18:06;995.0;;;7.1;77.0
53940;BME280;39850;43.324;21.916;2023-03-01T18:22:42;995.0;;;7.1;77.0
53940;BME280;39850;43.324;21.916;2023-03-01T18:27:19;995.0;;;7.1;77.0
53940;BME280;39850;43.324;21.916;2023-03-01T19:22:54;995.0;;;7.3;77.0
53940;BME280;39850;43.324;21.916;2023-03-01T19:27:31;995.0;;;7.3;77.0
53940;BME280;39850;43.324;21.916;2023-03-01T19:32:08;995.0;;;7.4;77.0
53940;BME280;39850;43.324;21.916;2023-03-01T19:36:45;995.0;;;7.4;77.0
53940;BME280;39850;43.324;21.916;2023-03-01T19:41:22;995.0;;;7.4;77.0
53940;BME280;39850;43.324;21.916;2023-03-01T19:46:00;995.0;;;7.4;77.0
53940;BME280;39850;43.324;21.916;2023-03-01T19:50:37;995.0;;;7.6;76.0
53940;BME280;39850;43.324;21.916;2023-03-01T19:55:14;995.0;;;7.6;76.0
53940;BME280;39850;43.324;21.916;2023-03-01T19:59:51;995.0;;;7.6;76.0
53940;BME280;39850;43.324;21.916;2023-03-01T20:41:25;995.0;;;7.1;77.0
53940;BME280;39850;43.324;21.916;2023-03-01T20:46:08;995.0;;;7.1;77.0
53940;BME280;39850;43.324;21.916;2023-03-01T20:50:45;995.0;;;7.1;78.0
53940;BME280;39850;43.324;21.916;2023-03-01T20:55:22;995.0;;;7.1;78.0
53940;BME280;39850;43.324;21.916;2023-03-01T20:59:58;995.0;;;7.1;78.0
53940;BME280;39850;43.324;21.916;2023-03-01T21:04:35;995.0;;;7.1;78.0
53940;BME280;39850;43.324;21.916;2023-03-01T21:09:12;995.0;;;7.1;78.0
53940;BME280;39850;43.324;21.916;2023-03-01T21:13:49;995.0;;;7.1;78.0
53940;BME280;39850;43.324;21.916;2023-03-01T21:18:30;995.0;;;7.1;78.0
53940;BME280;39850;43.324;21.916;2023-03-01T22:05:04;995.0;;;8.2;77.0
53940;BME280;39850;43.324;21.916;2023-03-01T22:09:41;995.0;;;8.2;77.0
53940;BME280;39850;43.324;21.916;2023-03-01T22:14:21;995.0;;;8.2;77.0
53940;BME280;39850;43.324;21.916;2023-03-01T22:19:01;995.0;;;8.2;77.0
53940;BME280;39850;43.324;21.916;2023-03-01T22:23:41;995.0;;;8.2;77.0
53940;BME280;39850;43.324;21.916;2023-03-01T22:28:18;995.0;;;8.2;77.0
53940;BME280;39850;43.324;21.916;2023-03-01T22:32:55;995.0;;;8.2;77.0
53940;BME280;39850;43.324;21.916;2023-03-01T22:37:32;995.0;;;8.2;77.0
53940;BME280;39850;43.324;21.916;2023-03-01T23:24:07;995.0;;;7.2;78.0
53940;BME280;39850;43.324;21.916;2023-03-01T23:28:44;995.0;;;7.2;78.0
53940;BME280;39850;43.324;21.916;2023-03-01T23:33:22;995.0;;;7.2;78.0
53940;BME280;39850;43.324;21.916;2023-03-01T23:37:59;995.0;;;7.2;78.0
53940;BME280;39850;43.324;21.916;2023-03-01T23:42:35;995.0;;;7.2;78.0
53940;BME280;39850;43.324;21.916;2023-03-01T23:47:12;995.0;;;7.2;78.0
53940;BME280;39850;43.324;21.916;2023-03-01T23:51:50;995.0;;;7.3;78.0
53940;BME280;39850;43.324;21.916;2023-03-01T23:56:36;995.0;;;7.3;78.0
